KCDN/CDN METAR and TAF weather

Enter ICAO airport designator
Station Type Date Time Source
KCDN METAR 2021/03/01 03:35 UTC NOAA

KCDN 010335Z AUTO 00000KT 10SM FEW080 22/16 A3000 RMK AO2


Station Type Date Time Source
KCDN Decoded METAR 2021/03/01 03:35 UTC NOAA

Station name not available
Feb 28, 2021 - 10:35 PM EST / 2021.03.01 0335 UTC
Wind: Calm:0
Visibility: 10 mile(s):0
Sky conditions: mostly clear
Temperature: 71 F (22 C)
Dew Point: 60 F (16 C)
Relative Humidity: 68%
Pressure (altimeter): 30 in. Hg (1015 hPa)
ob: KCDN 010335Z AUTO 00000KT 10SM FEW080 22/16 A3000 RMK AO2
cycle: 3

Station Type Date Time Source
KCDN TAF UTC NOAA

Error!

Example: see airport list